sensor_id;sensor_type;location;lat;lon;timestamp;pressure;altitude;pressure_sealevel;temperature;humidity
62800;BME280;48842;51.046;13.796;2023-06-14T00:01:08;100340.81;;;17.48;nan
62800;BME280;48842;51.046;13.796;2023-06-14T00:03:34;100338.84;;;17.55;nan
62800;BME280;48842;51.046;13.796;2023-06-14T00:05:59;100340.66;;;17.54;nan
62800;BME280;48842;51.046;13.796;2023-06-14T00:08:25;100338.09;;;17.51;nan
62800;BME280;48842;51.046;13.796;2023-06-14T00:10:50;100330.22;;;17.48;nan
62800;BME280;48842;51.046;13.796;2023-06-14T00:13:16;100338.28;;;17.43;nan
62800;BME280;48842;51.046;13.796;2023-06-14T00:15:41;100338.31;;;17.40;nan
62800;BME280;48842;51.046;13.796;2023-06-14T00:18:07;100335.78;;;17.36;nan
62800;BME280;48842;51.046;13.796;2023-06-14T00:20:33;100336.78;;;17.32;nan
62800;BME280;48842;51.046;13.796;2023-06-14T00:23:00;100342.19;;;17.27;nan
62800;BME280;48842;51.046;13.796;2023-06-14T00:25:26;100327.31;;;17.21;nan
62800;BME280;48842;51.046;13.796;2023-06-14T00:27:53;100327.47;;;17.15;nan
62800;BME280;48842;51.046;13.796;2023-06-14T00:30:18;100332.00;;;17.10;nan
62800;BME280;48842;51.046;13.796;2023-06-14T00:32:44;100323.28;;;17.05;nan
62800;BME280;48842;51.046;13.796;2023-06-14T00:35:10;100327.84;;;17.00;nan
62800;BME280;48842;51.046;13.796;2023-06-14T00:37:37;100327.88;;;16.97;nan
62800;BME280;48842;51.046;13.796;2023-06-14T00:40:03;100330.56;;;16.95;nan
62800;BME280;48842;51.046;13.796;2023-06-14T00:42:29;100322.66;;;16.93;nan
62800;BME280;48842;51.046;13.796;2023-06-14T00:44:55;100320.09;;;16.90;nan
62800;BME280;48842;51.046;13.796;2023-06-14T00:47:20;100329.91;;;16.84;nan
62800;BME280;48842;51.046;13.796;2023-06-14T00:49:47;100325.63;;;16.78;nan
62800;BME280;48842;51.046;13.796;2023-06-14T00:52:13;100331.03;;;16.73;nan
62800;BME280;48842;51.046;13.796;2023-06-14T00:54:40;100338.28;;;16.64;nan
62800;BME280;48842;51.046;13.796;2023-06-14T00:57:05;100331.38;;;16.56;nan
62800;BME280;48842;51.046;13.796;2023-06-14T00:59:32;100332.25;;;16.55;nan
62800;BME280;48842;51.046;13.796;2023-06-14T01:01:57;100323.56;;;16.50;nan
62800;BME280;48842;51.046;13.796;2023-06-14T01:04:23;100321.97;;;16.43;nan
62800;BME280;48842;51.046;13.796;2023-06-14T01:07:11;100326.41;;;16.39;nan
62800;BME280;48842;51.046;13.796;2023-06-14T01:09:57;100325.63;;;16.36;nan
62800;BME280;48842;51.046;13.796;2023-06-14T01:15:16;100330.97;;;16.33;nan
62800;BME280;48842;51.046;13.796;2023-06-14T01:17:42;100327.47;;;16.31;nan
62800;BME280;48842;51.046;13.796;2023-06-14T01:20:11;100332.75;;;16.31;nan
62800;BME280;48842;51.046;13.796;2023-06-14T01:22:51;100332.78;;;16.29;nan
62800;BME280;48842;51.046;13.796;2023-06-14T01:25:17;100334.56;;;16.29;nan
62800;BME280;48842;51.046;13.796;2023-06-14T01:27:45;100332.78;;;16.29;nan
62800;BME280;48842;51.046;13.796;2023-06-14T01:30:12;100324.94;;;16.26;nan
62800;BME280;48842;51.046;13.796;2023-06-14T01:32:37;100324.97;;;16.25;nan
62800;BME280;48842;51.046;13.796;2023-06-14T01:35:03;100332.09;;;16.21;nan
62800;BME280;48842;51.046;13.796;2023-06-14T01:37:29;100328.59;;;16.19;nan
62800;BME280;48842;51.046;13.796;2023-06-14T01:39:55;100324.19;;;16.19;nan
62800;BME280;48842;51.046;13.796;2023-06-14T01:42:21;100318.00;;;16.20;nan
62800;BME280;48842;51.046;13.796;2023-06-14T01:44:48;100318.91;;;16.19;nan
62800;BME280;48842;51.046;13.796;2023-06-14T01:47:14;100318.94;;;16.18;nan
62800;BME280;48842;51.046;13.796;2023-06-14T01:49:39;100309.31;;;16.14;nan
62800;BME280;48842;51.046;13.796;2023-06-14T01:52:05;100314.63;;;16.14;nan
62800;BME280;48842;51.046;13.796;2023-06-14T01:54:31;100318.16;;;16.13;nan
62800;BME280;48842;51.046;13.796;2023-06-14T01:56:56;100324.28;;;16.13;nan
62800;BME280;48842;51.046;13.796;2023-06-14T01:59:22;100322.50;;;16.15;nan
62800;BME280;48842;51.046;13.796;2023-06-14T02:01:47;100322.50;;;16.15;nan
62800;BME280;48842;51.046;13.796;2023-06-14T02:04:12;100320.75;;;16.14;nan
62800;BME280;48842;51.046;13.796;2023-06-14T02:06:37;100328.69;;;16.14;nan
62800;BME280;48842;51.046;13.796;2023-06-14T02:09:03;100342.84;;;16.10;nan
62800;BME280;48842;51.046;13.796;2023-06-14T02:11:28;100337.69;;;16.04;nan
62800;BME280;48842;51.046;13.796;2023-06-14T02:13:54;100332.41;;;16.04;nan
62800;BME280;48842;51.046;13.796;2023-06-14T02:16:20;100335.94;;;16.03;nan
62800;BME280;48842;51.046;13.796;2023-06-14T02:18:45;100340.44;;;15.98;nan
62800;BME280;48842;51.046;13.796;2023-06-14T02:21:11;100333.41;;;15.97;nan
62800;BME280;48842;51.046;13.796;2023-06-14T02:23:36;100341.41;;;15.94;nan
62800;BME280;48842;51.046;13.796;2023-06-14T02:26:01;100337.94;;;15.92;nan
62800;BME280;48842;51.046;13.796;2023-06-14T02:28:27;100335.28;;;15.92;nan
62800;BME280;48842;51.046;13.796;2023-06-14T02:30:53;100330.91;;;15.91;nan
62800;BME280;48842;51.046;13.796;2023-06-14T02:33:18;100337.13;;;15.86;nan
62800;BME280;48842;51.046;13.796;2023-06-14T02:35:43;100335.47;;;15.81;nan
62800;BME280;48842;51.046;13.796;2023-06-14T02:38:08;100337.28;;;15.77;nan
62800;BME280;48842;51.046;13.796;2023-06-14T02:40:34;100339.03;;;15.75;nan
62800;BME280;48842;51.046;13.796;2023-06-14T02:42:59;100337.31;;;15.76;nan
62800;BME280;48842;51.046;13.796;2023-06-14T02:45:24;100344.38;;;15.72;nan
62800;BME280;48842;51.046;13.796;2023-06-14T02:47:50;100343.59;;;15.68;nan
62800;BME280;48842;51.046;13.796;2023-06-14T02:50:16;100336.53;;;15.67;nan
62800;BME280;48842;51.046;13.796;2023-06-14T02:52:41;100348.03;;;15.65;nan
62800;BME280;48842;51.046;13.796;2023-06-14T02:55:07;100348.13;;;15.59;nan
62800;BME280;48842;51.046;13.796;2023-06-14T02:57:33;100347.31;;;15.53;nan
62800;BME280;48842;51.046;13.796;2023-06-14T02:59:58;100357.97;;;15.49;nan
62800;BME280;48842;51.046;13.796;2023-06-14T03:02:23;100348.34;;;15.45;nan
62800;BME280;48842;51.046;13.796;2023-06-14T03:04:49;100352.00;;;15.39;nan
62800;BME280;48842;51.046;13.796;2023-06-14T03:07:14;100354.63;;;15.39;nan
62800;BME280;48842;51.046;13.796;2023-06-14T03:09:45;100357.25;;;15.39;nan
62800;BME280;48842;51.046;13.796;2023-06-14T03:12:10;100358.19;;;15.36;nan
62800;BME280;48842;51.046;13.796;2023-06-14T03:14:36;100353.81;;;15.34;nan
62800;BME280;48842;51.046;13.796;2023-06-14T03:17:02;100360.91;;;15.32;nan
62800;BME280;48842;51.046;13.796;2023-06-14T03:19:29;100357.38;;;15.30;nan
62800;BME280;48842;51.046;13.796;2023-06-14T03:21:55;100362.66;;;15.30;nan
62800;BME280;48842;51.046;13.796;2023-06-14T03:24:23;100359.13;;;15.31;nan
62800;BME280;48842;51.046;13.796;2023-06-14T03:26:48;100356.53;;;15.29;nan
62800;BME280;48842;51.046;13.796;2023-06-14T03:29:14;100359.25;;;15.25;nan
62800;BME280;48842;51.046;13.796;2023-06-14T03:31:56;100360.16;;;15.22;nan
62800;BME280;48842;51.046;13.796;2023-06-14T03:34:22;100373.41;;;15.19;nan
62800;BME280;48842;51.046;13.796;2023-06-14T03:36:47;100371.66;;;15.16;nan
62800;BME280;48842;51.046;13.796;2023-06-14T03:39:12;100374.31;;;15.15;nan
62800;BME280;48842;51.046;13.796;2023-06-14T03:41:37;100379.56;;;15.16;nan
62800;BME280;48842;51.046;13.796;2023-06-14T03:44:03;100384.81;;;15.19;nan
62800;BME280;48842;51.046;13.796;2023-06-14T03:46:28;100383.03;;;15.22;nan
62800;BME280;48842;51.046;13.796;2023-06-14T03:48:53;100387.41;;;15.23;nan
62800;BME280;48842;51.046;13.796;2023-06-14T03:51:18;100390.09;;;15.19;nan
62800;BME280;48842;51.046;13.796;2023-06-14T03:53:44;100387.44;;;15.19;nan
62800;BME280;48842;51.046;13.796;2023-06-14T03:56:09;100397.97;;;15.21;nan
62800;BME280;48842;51.046;13.796;2023-06-14T03:58:35;100393.53;;;15.25;nan
62800;BME280;48842;51.046;13.796;2023-06-14T04:01:00;100401.41;;;15.28;nan
62800;BME280;48842;51.046;13.796;2023-06-14T04:03:25;100398.72;;;15.31;nan
62800;BME280;48842;51.046;13.796;2023-06-14T04:05:54;100405.75;;;15.32;nan
62800;BME280;48842;51.046;13.796;2023-06-14T04:08:21;100405.75;;;15.33;nan
62800;BME280;48842;51.046;13.796;2023-06-14T04:10:47;100410.06;;;15.36;nan
62800;BME280;48842;51.046;13.796;2023-06-14T04:13:12;100411.81;;;15.37;nan
62800;BME280;48842;51.046;13.796;2023-06-14T04:15:39;100410.03;;;15.41;nan
62800;BME280;48842;51.046;13.796;2023-06-14T04:18:07;100414.38;;;15.43;nan
62800;BME280;48842;51.046;13.796;2023-06-14T04:20:32;100414.34;;;15.45;nan
62800;BME280;48842;51.046;13.796;2023-06-14T04:23:11;100415.25;;;15.45;nan
62800;BME280;48842;51.046;13.796;2023-06-14T04:25:37;100404.69;;;15.45;nan
62800;BME280;48842;51.046;13.796;2023-06-14T04:28:02;100399.34;;;15.48;nan
62800;BME280;48842;51.046;13.796;2023-06-14T04:30:28;100398.41;;;15.52;nan
62800;BME280;48842;51.046;13.796;2023-06-14T04:32:56;100403.63;;;15.56;nan
62800;BME280;48842;51.046;13.796;2023-06-14T04:35:22;100404.47;;;15.58;nan
62800;BME280;48842;51.046;13.796;2023-06-14T04:37:49;100411.47;;;15.60;nan
62800;BME280;48842;51.046;13.796;2023-06-14T04:40:15;100411.44;;;15.63;nan
62800;BME280;48842;51.046;13.796;2023-06-14T04:42:40;100416.69;;;15.65;nan
62800;BME280;48842;51.046;13.796;2023-06-14T04:45:06;100423.69;;;15.67;nan
62800;BME280;48842;51.046;13.796;2023-06-14T04:47:32;100433.34;;;15.70;nan
62800;BME280;48842;51.046;13.796;2023-06-14T04:49:57;100429.81;;;15.69;nan
62800;BME280;48842;51.046;13.796;2023-06-14T04:52:25;100428.94;;;15.70;nan
62800;BME280;48842;51.046;13.796;2023-06-14T04:54:51;100445.63;;;15.73;nan
62800;BME280;48842;51.046;13.796;2023-06-14T04:57:17;100440.34;;;15.74;nan
62800;BME280;48842;51.046;13.796;2023-06-14T04:59:47;100437.69;;;15.74;nan
62800;BME280;48842;51.046;13.796;2023-06-14T05:02:12;100435.97;;;15.71;nan
62800;BME280;48842;51.046;13.796;2023-06-14T05:04:37;100439.53;;;15.69;nan
62800;BME280;48842;51.046;13.796;2023-06-14T05:07:07;100442.13;;;15.70;nan
62800;BME280;48842;51.046;13.796;2023-06-14T05:09:33;100445.63;;;15.71;nan
62800;BME280;48842;51.046;13.796;2023-06-14T05:11:58;100443.97;;;15.67;nan
62800;BME280;48842;51.046;13.796;2023-06-14T05:14:25;100448.31;;;15.68;nan
62800;BME280;48842;51.046;13.796;2023-06-14T05:16:50;100446.50;;;15.73;nan
62800;BME280;48842;51.046;13.796;2023-06-14T05:19:16;100452.59;;;15.78;nan
62800;BME280;48842;51.046;13.796;2023-06-14T05:21:42;100448.19;;;15.80;nan
62800;BME280;48842;51.046;13.796;2023-06-14T05:24:08;100457.84;;;15.83;nan
62800;BME280;48842;51.046;13.796;2023-06-14T05:26:34;100455.16;;;15.84;nan
62800;BME280;48842;51.046;13.796;2023-06-14T05:29:00;100447.19;;;15.87;nan
62800;BME280;48842;51.046;13.796;2023-06-14T05:31:26;100449.69;;;15.95;nan
62800;BME280;48842;51.046;13.796;2023-06-14T05:33:52;100448.66;;;16.04;nan
62800;BME280;48842;51.046;13.796;2023-06-14T05:36:18;100447.63;;;16.14;nan
62800;BME280;48842;51.046;13.796;2023-06-14T05:38:45;100454.50;;;16.25;nan
62800;BME280;48842;51.046;13.796;2023-06-14T05:41:10;100454.38;;;16.31;nan
62800;BME280;48842;51.046;13.796;2023-06-14T05:43:36;100449.88;;;16.36;nan
62800;BME280;48842;51.046;13.796;2023-06-14T05:46:01;100454.22;;;16.40;nan
62800;BME280;48842;51.046;13.796;2023-06-14T05:48:26;100444.34;;;16.48;nan
62800;BME280;48842;51.046;13.796;2023-06-14T05:50:51;100449.47;;;16.59;nan
62800;BME280;48842;51.046;13.796;2023-06-14T05:53:16;100458.06;;;16.69;nan
62800;BME280;48842;51.046;13.796;2023-06-14T05:55:42;100450.88;;;16.77;nan
62800;BME280;48842;51.046;13.796;2023-06-14T05:58:07;100452.34;;;16.92;nan
62800;BME280;48842;51.046;13.796;2023-06-14T06:00:32;100453.84;;;17.07;nan
62800;BME280;48842;51.046;13.796;2023-06-14T06:02:58;100459.75;;;17.18;nan
62800;BME280;48842;51.046;13.796;2023-06-14T06:05:24;100458.69;;;17.27;nan
62800;BME280;48842;51.046;13.796;2023-06-14T06:07:49;100450.63;;;17.32;nan
62800;BME280;48842;51.046;13.796;2023-06-14T06:10:15;100445.28;;;17.35;nan
62800;BME280;48842;51.046;13.796;2023-06-14T06:12:42;100451.41;;;17.37;nan
62800;BME280;48842;51.046;13.796;2023-06-14T06:15:07;100464.66;;;17.37;nan
62800;BME280;48842;51.046;13.796;2023-06-14T06:17:37;100461.03;;;17.41;nan
62800;BME280;48842;51.046;13.796;2023-06-14T06:20:03;100468.84;;;17.47;nan
62800;BME280;48842;51.046;13.796;2023-06-14T06:22:30;100466.94;;;17.54;nan
62800;BME280;48842;51.046;13.796;2023-06-14T06:24:55;100467.53;;;17.65;nan
62800;BME280;48842;51.046;13.796;2023-06-14T06:27:21;100472.75;;;17.70;nan
62800;BME280;48842;51.046;13.796;2023-06-14T06:29:46;100465.56;;;17.75;nan
62800;BME280;48842;51.046;13.796;2023-06-14T06:32:13;100473.47;;;17.76;nan
62800;BME280;48842;51.046;13.796;2023-06-14T06:34:42;100481.44;;;17.75;nan
62800;BME280;48842;51.046;13.796;2023-06-14T06:37:13;100484.06;;;17.76;nan
62800;BME280;48842;51.046;13.796;2023-06-14T06:39:39;100481.28;;;17.81;nan
62800;BME280;48842;51.046;13.796;2023-06-14T06:42:04;100481.28;;;17.81;nan
62800;BME280;48842;51.046;13.796;2023-06-14T06:44:30;100473.31;;;17.83;nan
62800;BME280;48842;51.046;13.796;2023-06-14T06:46:55;100483.81;;;17.87;nan
62800;BME280;48842;51.046;13.796;2023-06-14T06:49:20;100478.28;;;17.98;nan
62800;BME280;48842;51.046;13.796;2023-06-14T06:51:59;100477.28;;;18.04;nan
62800;BME280;48842;51.046;13.796;2023-06-14T06:54:25;100471.88;;;18.07;nan
62800;BME280;48842;51.046;13.796;2023-06-14T06:56:50;100473.47;;;18.14;nan
62800;BME280;48842;51.046;13.796;2023-06-14T06:59:16;100474.13;;;18.24;nan
62800;BME280;48842;51.046;13.796;2023-06-14T07:01:41;100457.97;;;18.33;nan
62800;BME280;48842;51.046;13.796;2023-06-14T07:04:07;100462.31;;;18.36;nan
62800;BME280;48842;51.046;13.796;2023-06-14T07:06:32;100461.16;;;18.46;nan
62800;BME280;48842;51.046;13.796;2023-06-14T07:08:57;100464.38;;;18.57;nan
62800;BME280;48842;51.046;13.796;2023-06-14T07:11:26;100456.91;;;18.72;nan
62800;BME280;48842;51.046;13.796;2023-06-14T07:13:51;100470.88;;;18.78;nan
62800;BME280;48842;51.046;13.796;2023-06-14T07:16:17;100462.78;;;18.83;nan
62800;BME280;48842;51.046;13.796;2023-06-14T07:18:42;100464.38;;;18.90;nan
62800;BME280;48842;51.046;13.796;2023-06-14T07:21:08;100462.31;;;19.01;nan
62800;BME280;48842;51.046;13.796;2023-06-14T07:23:33;100472.66;;;19.11;nan
62800;BME280;48842;51.046;13.796;2023-06-14T07:26:00;100464.50;;;19.17;nan
62800;BME280;48842;51.046;13.796;2023-06-14T07:28:25;100460.69;;;19.26;nan
62800;BME280;48842;51.046;13.796;2023-06-14T07:30:50;100460.53;;;19.32;nan
62800;BME280;48842;51.046;13.796;2023-06-14T07:33:15;100468.25;;;19.40;nan
62800;BME280;48842;51.046;13.796;2023-06-14T07:35:41;100470.66;;;19.47;nan
62800;BME280;48842;51.046;13.796;2023-06-14T07:38:06;100469.50;;;19.56;nan
62800;BME280;48842;51.046;13.796;2023-06-14T07:40:31;100471.13;;;19.62;nan
62800;BME280;48842;51.046;13.796;2023-06-14T07:42:56;100473.66;;;19.65;nan
62800;BME280;48842;51.046;13.796;2023-06-14T07:45:22;100475.28;;;19.70;nan
62800;BME280;48842;51.046;13.796;2023-06-14T07:47:47;100481.31;;;19.76;nan
62800;BME280;48842;51.046;13.796;2023-06-14T07:50:12;100472.34;;;19.80;nan
62800;BME280;48842;51.046;13.796;2023-06-14T07:52:38;100475.63;;;19.88;nan
62800;BME280;48842;51.046;13.796;2023-06-14T07:55:04;100474.56;;;19.94;nan
62800;BME280;48842;51.046;13.796;2023-06-14T07:57:30;100482.28;;;20.01;nan
62800;BME280;48842;51.046;13.796;2023-06-14T07:59:55;100478.50;;;20.09;nan
62800;BME280;48842;51.046;13.796;2023-06-14T08:02:20;100484.50;;;20.15;nan
62800;BME280;48842;51.046;13.796;2023-06-14T08:04:46;100475.50;;;20.19;nan
62800;BME280;48842;51.046;13.796;2023-06-14T08:07:13;100475.38;;;20.22;nan
62800;BME280;48842;51.046;13.796;2023-06-14T08:09:39;100479.63;;;20.28;nan
62800;BME280;48842;51.046;13.796;2023-06-14T08:12:05;100484.75;;;20.34;nan
62800;BME280;48842;51.046;13.796;2023-06-14T08:14:33;100475.81;;;20.35;nan
62800;BME280;48842;51.046;13.796;2023-06-14T08:16:58;100475.00;;;20.33;nan
62800;BME280;48842;51.046;13.796;2023-06-14T08:19:23;100487.41;;;20.34;nan
62800;BME280;48842;51.046;13.796;2023-06-14T08:21:49;100488.38;;;20.32;nan
62800;BME280;48842;51.046;13.796;2023-06-14T08:24:14;100481.06;;;20.37;nan
62800;BME280;48842;51.046;13.796;2023-06-14T08:26:40;100498.53;;;20.46;nan
62800;BME280;48842;51.046;13.796;2023-06-14T08:29:05;100478.75;;;20.53;nan
62800;BME280;48842;51.046;13.796;2023-06-14T08:31:32;100476.75;;;20.60;nan
62800;BME280;48842;51.046;13.796;2023-06-14T08:33:58;100481.84;;;20.67;nan
62800;BME280;48842;51.046;13.796;2023-06-14T08:36:23;100479.91;;;20.72;nan
62800;BME280;48842;51.046;13.796;2023-06-14T08:38:48;100485.00;;;20.79;nan
62800;BME280;48842;51.046;13.796;2023-06-14T08:41:21;100479.38;;;20.86;nan
62800;BME280;48842;51.046;13.796;2023-06-14T08:43:47;100478.34;;;20.90;nan
62800;BME280;48842;51.046;13.796;2023-06-14T08:46:13;100488.03;;;20.93;nan
62800;BME280;48842;51.046;13.796;2023-06-14T08:48:41;100481.72;;;20.96;nan
62800;BME280;48842;51.046;13.796;2023-06-14T08:51:09;100478.88;;;21.00;nan
62800;BME280;48842;51.046;13.796;2023-06-14T08:53:35;100484.09;;;21.03;nan
62800;BME280;48842;51.046;13.796;2023-06-14T08:56:07;100478.66;;;21.06;nan
62800;BME280;48842;51.046;13.796;2023-06-14T08:58:43;100483.78;;;21.11;nan
62800;BME280;48842;51.046;13.796;2023-06-14T09:01:10;100486.41;;;21.13;nan
62800;BME280;48842;51.046;13.796;2023-06-14T09:03:39;100482.03;;;21.12;nan
62800;BME280;48842;51.046;13.796;2023-06-14T09:06:06;100479.28;;;21.13;nan
62800;BME280;48842;51.046;13.796;2023-06-14T09:08:34;100482.56;;;21.20;nan
62800;BME280;48842;51.046;13.796;2023-06-14T09:11:01;100488.63;;;21.25;nan
62800;BME280;48842;51.046;13.796;2023-06-14T09:13:26;100485.72;;;21.31;nan
62800;BME280;48842;51.046;13.796;2023-06-14T09:15:52;100487.22;;;21.38;nan
62800;BME280;48842;51.046;13.796;2023-06-14T09:18:17;100493.19;;;21.45;nan
62800;BME280;48842;51.046;13.796;2023-06-14T09:20:42;100488.59;;;21.49;nan
62800;BME280;48842;51.046;13.796;2023-06-14T09:23:08;100488.66;;;21.47;nan
62800;BME280;48842;51.046;13.796;2023-06-14T09:25:42;100490.06;;;21.57;nan
62800;BME280;48842;51.046;13.796;2023-06-14T09:28:07;100486.72;;;21.74;nan
62800;BME280;48842;51.046;13.796;2023-06-14T09:30:33;100480.75;;;21.90;nan
62800;BME280;48842;51.046;13.796;2023-06-14T09:32:59;100484.66;;;22.03;nan
62800;BME280;48842;51.046;13.796;2023-06-14T09:35:24;100482.41;;;22.14;nan
62800;BME280;48842;51.046;13.796;2023-06-14T09:37:49;100481.22;;;22.22;nan
62800;BME280;48842;51.046;13.796;2023-06-14T09:40:20;100485.44;;;22.27;nan
62800;BME280;48842;51.046;13.796;2023-06-14T09:42:45;100482.47;;;22.35;nan
62800;BME280;48842;51.046;13.796;2023-06-14T09:45:10;100484.75;;;22.44;nan
62800;BME280;48842;51.046;13.796;2023-06-14T09:47:38;100472.88;;;22.52;nan
62800;BME280;48842;51.046;13.796;2023-06-14T09:50:04;100482.25;;;22.60;nan
62800;BME280;48842;51.046;13.796;2023-06-14T09:52:29;100475.06;;;22.62;nan
62800;BME280;48842;51.046;13.796;2023-06-14T09:54:55;100474.00;;;22.66;nan
62800;BME280;48842;51.046;13.796;2023-06-14T09:57:25;100465.63;;;22.74;nan
62800;BME280;48842;51.046;13.796;2023-06-14T09:59:53;100471.50;;;22.82;nan
62800;BME280;48842;51.046;13.796;2023-06-14T10:02:26;100477.44;;;22.89;nan
62800;BME280;48842;51.046;13.796;2023-06-14T10:05:14;100468.19;;;22.96;nan
62800;BME280;48842;51.046;13.796;2023-06-14T10:07:59;100474.00;;;23.06;nan
62800;BME280;48842;51.046;13.796;2023-06-14T10:10:25;100465.72;;;23.12;nan
62800;BME280;48842;51.046;13.796;2023-06-14T10:12:51;100468.25;;;23.15;nan
62800;BME280;48842;51.046;13.796;2023-06-14T10:15:20;100470.13;;;23.13;nan
62800;BME280;48842;51.046;13.796;2023-06-14T10:17:55;100470.28;;;23.10;nan
62800;BME280;48842;51.046;13.796;2023-06-14T10:21:32;100465.25;;;23.02;nan
62800;BME280;48842;51.046;13.796;2023-06-14T10:23:26;100471.94;;;22.92;nan
62800;BME280;48842;51.046;13.796;2023-06-14T10:25:59;100472.16;;;22.88;nan
62800;BME280;48842;51.046;13.796;2023-06-14T10:28:25;100466.66;;;22.91;nan
62800;BME280;48842;51.046;13.796;2023-06-14T10:31:07;100452.03;;;22.99;nan
62800;BME280;48842;51.046;13.796;2023-06-14T10:33:34;100455.97;;;23.11;nan
62800;BME280;48842;51.046;13.796;2023-06-14T10:39:39;100459.06;;;23.40;nan
62800;BME280;48842;51.046;13.796;2023-06-14T10:41:54;100457.69;;;23.50;nan
62800;BME280;48842;51.046;13.796;2023-06-14T10:46:55;100459.59;;;23.48;nan
62800;BME280;48842;51.046;13.796;2023-06-14T10:49:44;100448.81;;;23.50;nan
62800;BME280;48842;51.046;13.796;2023-06-14T10:52:14;100450.59;;;23.49;nan
62800;BME280;48842;51.046;13.796;2023-06-14T11:00:13;100449.06;;;23.26;nan
62800;BME280;48842;51.046;13.796;2023-06-14T11:02:50;100444.63;;;23.25;nan
62800;BME280;48842;51.046;13.796;2023-06-14T11:05:23;100448.31;;;23.23;nan
62800;BME280;48842;51.046;13.796;2023-06-14T11:10:39;100437.25;;;23.30;nan
62800;BME280;48842;51.046;13.796;2023-06-14T11:13:05;100437.97;;;23.53;nan
62800;BME280;48842;51.046;13.796;2023-06-14T11:15:32;100435.72;;;23.63;nan
62800;BME280;48842;51.046;13.796;2023-06-14T11:18:00;100437.66;;;23.59;nan
62800;BME280;48842;51.046;13.796;2023-06-14T11:20:27;100441.72;;;23.49;nan
62800;BME280;48842;51.046;13.796;2023-06-14T11:22:53;100435.16;;;23.37;nan
62800;BME280;48842;51.046;13.796;2023-06-14T11:25:19;100439.81;;;23.33;nan
62800;BME280;48842;51.046;13.796;2023-06-14T11:27:44;100433.34;;;23.38;nan
62800;BME280;48842;51.046;13.796;2023-06-14T11:30:10;100438.78;;;23.36;nan
62800;BME280;48842;51.046;13.796;2023-06-14T11:32:37;100439.94;;;23.30;nan
62800;BME280;48842;51.046;13.796;2023-06-14T11:35:03;100432.19;;;23.24;nan
62800;BME280;48842;51.046;13.796;2023-06-14T11:37:30;100436.78;;;23.22;nan
62800;BME280;48842;51.046;13.796;2023-06-14T11:39:58;100438.50;;;23.23;nan
62800;BME280;48842;51.046;13.796;2023-06-14T11:42:26;100444.50;;;23.28;nan
62800;BME280;48842;51.046;13.796;2023-06-14T11:44:53;100444.13;;;23.36;nan
62800;BME280;48842;51.046;13.796;2023-06-14T11:47:18;100435.28;;;23.53;nan
62800;BME280;48842;51.046;13.796;2023-06-14T11:49:43;100434.94;;;23.78;nan
62800;BME280;48842;51.046;13.796;2023-06-14T11:52:08;100437.50;;;23.99;nan
62800;BME280;48842;51.046;13.796;2023-06-14T11:54:34;100446.03;;;24.07;nan
62800;BME280;48842;51.046;13.796;2023-06-14T11:56:59;100444.00;;;23.95;nan
62800;BME280;48842;51.046;13.796;2023-06-14T11:59:25;100438.72;;;23.74;nan
62800;BME280;48842;51.046;13.796;2023-06-14T12:01:50;100434.13;;;23.59;nan
62800;BME280;48842;51.046;13.796;2023-06-14T12:04:24;100427.50;;;23.48;nan
62800;BME280;48842;51.046;13.796;2023-06-14T12:06:52;100434.72;;;23.46;nan
62800;BME280;48842;51.046;13.796;2023-06-14T12:09:18;100435.28;;;23.53;nan
62800;BME280;48842;51.046;13.796;2023-06-14T12:11:45;100432.38;;;23.58;nan
62800;BME280;48842;51.046;13.796;2023-06-14T12:14:10;100438.75;;;23.55;nan
62800;BME280;48842;51.046;13.796;2023-06-14T12:16:38;100442.66;;;23.48;nan
62800;BME280;48842;51.046;13.796;2023-06-14T12:19:15;100445.72;;;23.40;nan
62800;BME280;48842;51.046;13.796;2023-06-14T12:21:41;100442.25;;;23.38;nan
62800;BME280;48842;51.046;13.796;2023-06-14T12:24:07;100441.50;;;23.34;nan
62800;BME280;48842;51.046;13.796;2023-06-14T12:26:33;100442.41;;;23.35;nan
62800;BME280;48842;51.046;13.796;2023-06-14T12:28:58;100439.34;;;23.43;nan
62800;BME280;48842;51.046;13.796;2023-06-14T12:31:24;100428.94;;;23.56;nan
62800;BME280;48842;51.046;13.796;2023-06-14T12:33:49;100433.22;;;23.77;nan
62800;BME280;48842;51.046;13.796;2023-06-14T12:36:15;100427.78;;;23.98;nan
62800;BME280;48842;51.046;13.796;2023-06-14T12:38:41;100425.03;;;24.17;nan
62800;BME280;48842;51.046;13.796;2023-06-14T12:41:06;100419.50;;;24.37;nan
62800;BME280;48842;51.046;13.796;2023-06-14T12:43:32;100425.94;;;24.68;nan
62800;BME280;48842;51.046;13.796;2023-06-14T12:45:58;100421.94;;;24.93;nan
62800;BME280;48842;51.046;13.796;2023-06-14T12:48:23;100416.59;;;25.09;nan
62800;BME280;48842;51.046;13.796;2023-06-14T12:50:48;100419.78;;;25.16;nan
62800;BME280;48842;51.046;13.796;2023-06-14T12:53:14;100424.72;;;25.23;nan
62800;BME280;48842;51.046;13.796;2023-06-14T12:55:39;100420.91;;;25.12;nan
62800;BME280;48842;51.046;13.796;2023-06-14T12:58:04;100427.72;;;24.85;nan
62800;BME280;48842;51.046;13.796;2023-06-14T13:00:30;100423.00;;;24.55;nan
62800;BME280;48842;51.046;13.796;2023-06-14T13:02:56;100426.03;;;24.32;nan
62800;BME280;48842;51.046;13.796;2023-06-14T13:05:21;100423.38;;;24.14;nan
62800;BME280;48842;51.046;13.796;2023-06-14T13:07:46;100407.97;;;24.35;nan
62800;BME280;48842;51.046;13.796;2023-06-14T13:10:12;100403.84;;;25.13;nan
62800;BME280;48842;51.046;13.796;2023-06-14T13:12:37;100399.53;;;26.35;nan
62800;BME280;48842;51.046;13.796;2023-06-14T13:15:03;100389.53;;;28.44;nan